Main page
METAR-TAF:

METAR-TAF

Airports :

Kos International Airport

Kos, Greece

latitude: 36-47N, longitude: 027-04E, elevation: 129 m

Current weather observation

The report was made 43 minutes ago, at 15:20 UTC
Wind 22 kt from the Southeast with gusts up to 32 kt
Temperature 18°C
Humidity 56%
Pressure 1006 hPa
Visibility 10 km or more
Scattered clouds at a height of 2500 ft

METAR: LGKO 041520Z 13022G32KT 9999 SCT025 18/09 Q1006

Time: 19:03 (16:03 UTC)

Forecast

The report was made 5 hours and 3 minutes ago, at 11:00 UTC
Forecast valid from 04 at 12 UTC to 05 at 12 UTC
Wind 20 kt from the East/Southeast with gusts up to 35 kt
Visibility 10 km or more
Scattered clouds at a height of 2500 ft
Probability 30% :
Temporary
from 04 at 18 UTC to 05 at 12 UTC
Visibility: 5000 m
Scattered clouds at a height of 1200 ft
Few clouds at a height of 1800 ft, Towering cumulus.
Broken clouds at a height of 2000 ft
rain

TAF: LGKO 041100Z 0412/0512 12020G35KT 9999 SCT025 PROB30 TEMPO 0418/0512 5000 RA SCT012 FEW018TCU BKN020

Weather observations and forecasts of more than 4000 airports (METAR and TAF reports).

The available stations are represented by yellow and red dots on the map.

Hover mouse over dot to see the name of the station.

Then click to see weather observations and forecasts.

To change the map : click on the green buttons with a black cross to zoom in, on the green button with a dash to zoom out, or on the green arrows for adjacent maps.


METAR-TAF: